Time;durP1;ratioP1;P1;durP2;ratioP2;P2;SDS_P1;SDS_P2;PMS_P1;PMS_P2;Temp;Humidity;BMP_temperature;BMP_pressure;BME280_temperature;BME280_humidity;BME280_pressure;Samples;Min_cycle;Max_cycle;Signal;HPM_P1;HPM_P2
2022/12/09 00:01:28;;;;;;;6.10;3.20;;;;;;;18.48;37.13;100564.88;5038080;28;20041;-66
2022/12/09 00:03:54;;;;;;;5.63;2.60;;;;;;;18.45;37.31;100552.81;5042181;28;20041;-67
2022/12/09 00:06:23;;;;;;;6.25;2.92;;;;;;;18.43;37.34;100553.91;5041354;28;20159;-68
2022/12/09 00:08:48;;;;;;;4.32;2.90;;;;;;;18.39;37.12;100549.84;5026736;28;20059;-68
2022/12/09 00:11:14;;;;;;;4.65;2.92;;;;;;;18.40;37.30;100551.53;5026449;28;20037;-69
2022/12/09 00:13:40;;;;;;;6.10;3.15;;;;;;;18.40;37.16;100551.53;5033687;28;20032;-67
2022/12/09 00:16:10;;;;;;;4.68;2.80;;;;;;;18.39;37.09;100555.13;5027073;28;20033;-66
2022/12/09 00:18:36;;;;;;;6.10;3.00;;;;;;;18.39;37.31;100555.13;5024807;28;20044;-66
2022/12/09 00:21:21;;;;;;;5.28;2.95;;;;;;;18.37;37.08;100557.06;5041398;28;20045;-67
2022/12/09 00:23:47;;;;;;;5.78;3.10;;;;;;;18.37;37.01;100549.97;5026564;28;20033;-67
2022/12/09 00:26:14;;;;;;;5.32;3.33;;;;;;;18.38;37.05;100556.94;5028523;28;20432;-66
2022/12/09 00:28:40;;;;;;;5.22;3.28;;;;;;;18.37;37.37;100542.06;5021623;28;20029;-66
2022/12/09 00:31:06;;;;;;;5.75;3.30;;;;;;;18.36;37.26;100550.09;5029498;28;20503;-67
2022/12/09 00:33:35;;;;;;;5.28;3.28;;;;;;;18.33;37.10;100548.59;5025941;28;20631;-66
2022/12/09 00:36:13;;;;;;;5.68;3.50;;;;;;;18.33;37.20;100556.50;5029015;28;20060;-66
2022/12/09 00:38:39;;;;;;;6.15;3.40;;;;;;;18.31;37.18;100550.53;5036767;28;20465;-66
2022/12/09 00:41:04;;;;;;;5.25;3.20;;;;;;;18.32;36.99;100554.81;5033496;28;20048;-68
2022/12/09 00:43:30;;;;;;;5.13;3.65;;;;;;;18.30;37.23;100554.13;5023063;28;20474;-67
2022/12/09 00:45:55;;;;;;;5.75;3.65;;;;;;;18.28;37.09;100550.81;5011997;28;20199;-67
2022/12/09 00:48:21;;;;;;;5.82;3.50;;;;;;;18.30;37.05;100554.13;5021834;28;20044;-66
2022/12/09 00:50:47;;;;;;;6.30;3.78;;;;;;;18.29;37.10;100560.38;5021419;28;20071;-66
2022/12/09 00:53:12;;;;;;;6.18;3.78;;;;;;;18.25;36.85;100551.06;5037740;28;20037;-66
2022/12/09 00:55:37;;;;;;;6.05;3.55;;;;;;;18.26;37.13;100550.94;5031903;28;20038;-67
2022/12/09 00:58:03;;;;;;;5.97;3.63;;;;;;;18.25;36.79;100551.88;5024902;28;20045;-67
2022/12/09 01:00:28;;;;;;;5.80;3.80;;;;;;;18.23;37.12;100545.91;5021383;28;20059;-68
2022/12/09 01:02:54;;;;;;;5.03;3.65;;;;;;;18.25;36.91;100551.88;5023677;28;20041;-67
2022/12/09 01:05:19;;;;;;;5.75;3.90;;;;;;;18.22;36.86;100538.97;5034357;28;20033;-67
2022/12/09 01:07:44;;;;;;;5.35;3.67;;;;;;;18.22;37.10;100549.50;5037261;28;20119;-67
2022/12/09 01:10:09;;;;;;;5.50;3.72;;;;;;;18.19;37.15;100544.50;5032980;28;20024;-66
2022/12/09 01:12:35;;;;;;;5.45;3.80;;;;;;;18.20;36.67;100546.19;5038788;28;20025;-66
2022/12/09 01:15:00;;;;;;;6.15;3.88;;;;;;;18.20;36.78;100550.59;5025956;28;20030;-69
2022/12/09 01:17:25;;;;;;;5.60;4.07;;;;;;;18.21;36.88;100549.66;5021250;28;20044;-67
2022/12/09 01:19:51;;;;;;;5.60;3.90;;;;;;;18.19;36.61;100554.22;5036579;28;20101;-67
2022/12/09 01:22:16;;;;;;;6.63;4.05;;;;;;;18.20;36.72;100562.00;5040615;28;20035;-68
2022/12/09 01:24:42;;;;;;;5.75;3.85;;;;;;;18.19;36.83;100556.88;5039861;28;20492;-66
2022/12/09 01:27:07;;;;;;;5.88;4.00;;;;;;;18.16;36.91;100557.13;5040642;28;20496;-67
2022/12/09 01:29:32;;;;;;;6.13;4.15;;;;;;;18.16;37.00;100557.13;5040824;28;20035;-65
2022/12/09 01:31:58;;;;;;;6.20;4.05;;;;;;;18.10;36.64;100550.56;5035602;28;20033;-66
2022/12/09 01:34:23;;;;;;;5.82;4.30;;;;;;;18.07;36.85;100551.69;5032970;28;20069;-66
2022/12/09 01:36:48;;;;;;;6.45;4.30;;;;;;;18.15;37.05;100561.56;5021749;28;20528;-65
2022/12/09 01:39:15;;;;;;;6.05;4.15;;;;;;;18.15;36.94;100564.22;5040337;28;20090;-67
2022/12/09 01:41:40;;;;;;;6.65;4.57;;;;;;;18.13;37.03;100561.72;5034032;28;20178;-66
2022/12/09 01:44:07;;;;;;;6.45;4.13;;;;;;;18.13;36.95;100561.72;5040790;28;20067;-68
2022/12/09 01:46:32;;;;;;;5.63;4.20;;;;;;;18.10;36.83;100554.06;5033623;28;20116;-67
2022/12/09 01:48:57;;;;;;;6.15;4.40;;;;;;;18.12;36.83;100556.56;5020492;28;20278;-66
2022/12/09 01:51:24;;;;;;;5.57;4.00;;;;;;;18.09;36.65;100559.47;5021846;28;20034;-68
2022/12/09 01:53:50;;;;;;;6.30;4.40;;;;;;;18.09;36.84;100562.91;5025515;28;20130;-67
2022/12/09 01:56:22;;;;;;;6.88;4.25;;;;;;;18.06;36.91;100557.09;5039496;28;20036;-65
2022/12/09 01:58:50;;;;;;;6.50;4.18;;;;;;;18.05;36.79;100555.41;5034922;28;20030;-68
2022/12/09 02:01:16;;;;;;;9.43;5.07;;;;;;;18.05;36.63;100566.78;5020721;28;20862;-67
2022/12/09 02:03:42;;;;;;;7.40;4.22;;;;;;;18.04;36.79;100548.44;5027191;28;20144;-68
2022/12/09 02:06:08;;;;;;;6.30;4.30;;;;;;;18.03;36.72;100555.53;5040289;28;20255;-67
2022/12/09 02:08:33;;;;;;;6.20;4.30;;;;;;;18.04;36.83;100559.00;5040500;28;20707;-68
2022/12/09 02:11:04;;;;;;;6.82;4.70;;;;;;;18.04;36.88;100559.84;5039686;28;20036;-67
2022/12/09 02:13:48;;;;;;;6.53;4.32;;;;;;;18.03;36.86;100558.16;5023594;28;20033;-68
2022/12/09 02:16:18;;;;;;;6.20;4.65;;;;;;;18.03;36.87;100563.44;5016164;28;20478;-67
2022/12/09 02:18:54;;;;;;;5.95;4.45;;;;;;;18.03;36.72;100557.34;5044103;28;20039;-66
2022/12/09 02:21:28;;;;;;;6.65;4.25;;;;;;;17.99;36.91;100562.06;5023747;28;20034;-66
2022/12/09 02:24:01;;;;;;;6.47;4.57;;;;;;;18.01;36.98;100559.25;5038882;28;20137;-66
2022/12/09 02:26:35;;;;;;;6.90;4.60;;;;;;;18.01;36.58;100564.53;5038438;28;20025;-66
2022/12/09 02:29:06;;;;;;;6.22;4.32;;;;;;;18.00;37.02;100562.88;5028860;28;20045;-65
2022/12/09 02:32:05;;;;;;;8.02;5.10;;;;;;;17.97;36.80;100547.31;5041923;28;20392;-67
2022/12/09 02:34:34;;;;;;;7.13;4.63;;;;;;;17.94;36.73;100553.66;5035435;28;20033;-68
2022/12/09 02:37:23;;;;;;;7.70;5.10;;;;;;;17.94;36.67;100554.53;5038619;28;20093;-66
2022/12/09 02:39:57;;;;;;;7.05;4.43;;;;;;;17.92;36.68;100555.59;5030402;28;20037;-65
2022/12/09 02:42:26;;;;;;;6.28;4.43;;;;;;;17.92;36.66;100551.16;5039736;28;20472;-67
2022/12/09 02:44:51;;;;;;;7.28;5.05;;;;;;;17.92;36.80;100551.16;5023919;28;20038;-67
2022/12/09 02:47:20;;;;;;;6.55;5.10;;;;;;;17.94;36.70;100553.66;5023903;28;20095;-67
2022/12/09 02:49:57;;;;;;;6.88;4.95;;;;;;;17.90;36.83;100549.66;5023766;28;20057;-67
2022/12/09 02:52:23;;;;;;;7.45;5.35;;;;;;;17.90;36.78;100550.47;5036691;28;20148;-67
2022/12/09 02:54:50;;;;;;;6.80;4.95;;;;;;;17.90;36.71;100545.19;5024129;28;20034;-67
2022/12/09 02:57:25;;;;;;;6.85;4.95;;;;;;;17.91;36.66;100546.03;5026975;28;20473;-66
2022/12/09 02:59:50;;;;;;;7.25;5.10;;;;;;;17.89;36.78;100540.06;5039620;28;20043;-66
2022/12/09 03:02:26;;;;;;;7.40;5.30;;;;;;;17.88;36.86;100543.63;5035676;28;20025;-66
2022/12/09 03:05:13;;;;;;;8.38;5.45;;;;;;;17.88;36.83;100541.00;5043280;28;20037;-67
2022/12/09 03:07:51;;;;;;;6.68;5.18;;;;;;;17.84;36.89;100544.84;5023378;28;20033;-68
2022/12/09 03:10:39;;;;;;;8.05;5.43;;;;;;;17.90;36.88;100552.28;5017207;28;20034;-67
2022/12/09 03:13:24;;;;;;;8.43;5.28;;;;;;;17.85;36.85;100542.09;5023354;28;20754;-67
2022/12/09 03:15:57;;;;;;;7.72;5.95;;;;;;;17.83;36.89;100537.91;5023379;28;20030;-67
2022/12/09 03:18:26;;;;;;;7.40;5.28;;;;;;;17.84;36.83;100539.59;5023640;28;20042;-65
2022/12/09 03:20:53;;;;;;;8.40;6.15;;;;;;;17.83;36.80;100535.25;5026071;28;20033;-66
2022/12/09 03:23:23;;;;;;;7.65;5.47;;;;;;;17.82;36.65;100531.81;5022721;28;20056;-65
2022/12/09 03:25:52;;;;;;;7.72;5.35;;;;;;;17.82;36.71;100531.81;5026980;28;20045;-67
2022/12/09 03:28:23;;;;;;;7.63;5.47;;;;;;;17.81;36.71;100527.50;5022795;28;20092;-67
2022/12/09 03:30:50;;;;;;;7.82;5.43;;;;;;;17.83;36.82;100524.72;5023082;28;20041;-66
2022/12/09 03:33:17;;;;;;;6.80;5.28;;;;;;;17.81;36.76;100522.22;5025474;28;20128;-67
2022/12/09 03:35:48;;;;;;;8.07;5.70;;;;;;;17.73;36.47;100514.13;5026199;28;20080;-67
2022/12/09 03:38:17;;;;;;;8.48;5.32;;;;;;;17.77;36.68;100511.09;5042708;28;20032;-67
2022/12/09 03:40:45;;;;;;;8.38;5.80;;;;;;;17.79;36.56;100513.59;5031739;28;20056;-65
2022/12/09 03:43:22;;;;;;;7.13;5.28;;;;;;;17.80;36.63;100511.81;5042672;28;20083;-68
2022/12/09 03:45:47;;;;;;;9.32;5.93;;;;;;;17.77;36.74;100510.28;5042542;28;20063;-67
2022/12/09 03:48:13;;;;;;;8.77;5.90;;;;;;;17.77;36.85;100518.19;5033965;28;20112;-67
2022/12/09 03:51:00;;;;;;;9.45;6.53;;;;;;;17.79;36.49;100518.06;5012691;28;20486;-67
2022/12/09 03:53:32;;;;;;;8.35;5.40;;;;;;;17.76;36.60;100512.06;5017421;28;20029;-65
2022/12/09 03:56:05;;;;;;;8.32;5.90;;;;;;;17.75;36.54;100507.78;5029086;28;20124;-65
2022/12/09 03:58:33;;;;;;;8.75;5.75;;;;;;;17.73;36.69;100511.50;5031285;28;20047;-66
2022/12/09 04:00:59;;;;;;;8.07;6.00;;;;;;;17.75;36.66;100509.56;5031629;28;20873;-67
2022/12/09 04:03:25;;;;;;;9.70;6.18;;;;;;;17.73;36.70;100516.75;5042435;28;20193;-66
2022/12/09 04:05:50;;;;;;;7.90;5.88;;;;;;;17.76;36.83;100522.59;5042491;28;20032;-65
2022/12/09 04:08:15;;;;;;;7.28;5.80;;;;;;;17.77;36.99;100520.81;5041937;28;20032;-66
2022/12/09 04:10:41;;;;;;;8.45;6.25;;;;;;;17.74;36.65;100514.00;5022307;28;20029;-66
2022/12/09 04:13:06;;;;;;;8.13;6.07;;;;;;;17.73;36.55;100508.84;5013344;28;20206;-68
2022/12/09 04:15:31;;;;;;;9.43;6.32;;;;;;;17.74;36.52;100510.53;5037513;28;20044;-65
2022/12/09 04:17:56;;;;;;;8.65;6.18;;;;;;;17.74;36.73;100510.53;5022885;28;20146;-65
2022/12/09 04:20:22;;;;;;;9.40;6.32;;;;;;;17.71;36.54;100508.97;5035854;28;20025;-67
2022/12/09 04:22:47;;;;;;;7.93;5.63;;;;;;;17.72;36.48;100504.53;5033663;28;20029;-67
2022/12/09 04:25:12;;;;;;;8.60;5.80;;;;;;;17.74;36.77;100510.53;5036560;28;20033;-68
2022/12/09 04:27:38;;;;;;;8.00;5.63;;;;;;;17.73;36.58;100507.03;5038037;28;20159;-67
2022/12/09 04:30:04;;;;;;;7.85;5.50;;;;;;;17.68;36.84;100503.16;5041553;28;20535;-67
2022/12/09 04:32:30;;;;;;;8.60;5.88;;;;;;;17.70;36.51;100504.66;5041471;28;20204;-68
2022/12/09 04:34:55;;;;;;;9.20;6.40;;;;;;;17.72;36.75;100515.94;5041177;28;20385;-67
2022/12/09 04:37:20;;;;;;;8.82;6.65;;;;;;;17.68;36.31;100500.50;5018161;28;20030;-66
2022/12/09 04:39:46;;;;;;;8.65;6.28;;;;;;;17.70;36.64;100504.66;5022212;28;20041;-67
2022/12/09 04:42:11;;;;;;;8.13;6.28;;;;;;;17.69;36.57;100499.53;5024492;28;20025;-67
2022/12/09 04:44:36;;;;;;;10.25;7.38;;;;;;;17.71;36.71;100502.88;5021760;28;20138;-68
2022/12/09 04:47:03;;;;;;;8.30;6.38;;;;;;;17.71;36.54;100502.88;5028966;28;20032;-67
2022/12/09 04:49:29;;;;;;;8.80;6.13;;;;;;;17.71;36.72;100502.88;5041591;28;20040;-67
2022/12/09 04:51:54;;;;;;;8.98;7.03;;;;;;;17.70;37.03;100504.66;5041141;28;20560;-69
2022/12/09 04:54:19;;;;;;;9.43;6.40;;;;;;;17.66;36.44;100500.63;5034880;28;20124;-66
2022/12/09 04:56:45;;;;;;;8.65;6.38;;;;;;;17.70;36.55;100503.84;5027724;28;20051;-65
2022/12/09 04:59:10;;;;;;;8.77;6.53;;;;;;;17.68;36.73;100501.34;5035731;28;20385;-67
2022/12/09 05:01:36;;;;;;;8.60;6.45;;;;;;;17.68;36.84;100509.25;5032600;28;20108;-66
2022/12/09 05:04:01;;;;;;;8.40;6.43;;;;;;;17.67;36.86;100502.28;5033441;28;20098;-66
2022/12/09 05:06:26;;;;;;;8.57;6.35;;;;;;;17.69;36.48;100508.28;5041541;28;20029;-67
2022/12/09 05:08:52;;;;;;;9.40;6.22;;;;;;;17.70;36.25;100509.94;5028484;28;20025;-66
2022/12/09 05:11:19;;;;;;;9.35;6.35;;;;;;;17.68;36.48;100505.78;5034432;28;20036;-66
2022/12/09 05:13:44;;;;;;;9.18;6.75;;;;;;;17.68;36.39;100500.50;5037598;28;20044;-67
2022/12/09 05:16:13;;;;;;;9.40;6.57;;;;;;;17.67;36.75;100504.94;5031842;28;20040;-68
2022/12/09 05:18:39;;;;;;;9.75;6.72;;;;;;;17.70;36.41;100503.84;5031197;28;20040;-66
2022/12/09 05:21:06;;;;;;;8.70;6.60;;;;;;;17.71;36.28;100503.72;5040927;28;20047;-65
2022/12/09 05:23:32;;;;;;;9.15;7.10;;;;;;;17.70;36.35;100504.66;5010988;28;20389;-67
2022/12/09 05:25:57;;;;;;;9.63;6.97;;;;;;;17.72;36.23;100504.53;5029826;28;20033;-67
2022/12/09 05:28:23;;;;;;;9.93;7.68;;;;;;;17.68;36.36;100505.78;5039569;28;20059;-67
2022/12/09 05:30:48;;;;;;;9.15;7.03;;;;;;;17.70;36.29;100506.47;5040811;28;20025;-68
2022/12/09 05:33:13;;;;;;;10.40;6.97;;;;;;;17.69;36.30;100503.00;5040743;28;20025;-68
2022/12/09 05:35:38;;;;;;;10.25;7.10;;;;;;;17.69;36.51;100504.78;5034999;28;20100;-67
2022/12/09 05:38:04;;;;;;;9.73;6.75;;;;;;;17.71;36.60;100508.16;5029655;28;20037;-66
2022/12/09 05:40:29;;;;;;;9.15;6.20;;;;;;;17.73;36.46;100514.13;5033084;28;20096;-67
2022/12/09 05:42:54;;;;;;;8.48;6.18;;;;;;;17.74;36.99;100506.09;5026160;28;20087;-67
2022/12/09 05:45:20;;;;;;;9.68;5.88;;;;;;;17.79;36.83;100515.41;5022402;28;20116;-68
2022/12/09 05:47:45;;;;;;;7.72;4.90;;;;;;;17.81;37.13;100510.84;5012990;28;20083;-67
2022/12/09 05:50:10;;;;;;;7.10;4.85;;;;;;;17.87;37.01;100518.22;5035956;28;20065;-68
2022/12/09 05:52:36;;;;;;;6.88;4.85;;;;;;;17.90;37.18;100502.19;5044606;28;20029;-66
2022/12/09 05:55:03;;;;;;;7.97;5.45;;;;;;;17.94;37.06;100512.34;5042645;28;20491;-67
2022/12/09 05:57:29;;;;;;;8.45;5.05;;;;;;;18.00;37.07;100503.06;5032935;28;20029;-66
2022/12/09 05:59:54;;;;;;;8.85;5.10;;;;;;;18.05;36.78;100500.84;5038101;28;20390;-66
2022/12/09 06:02:19;;;;;;;9.30;5.20;;;;;;;18.10;36.80;100503.94;5042153;28;20036;-66
2022/12/09 06:04:44;;;;;;;8.55;5.38;;;;;;;18.16;36.69;100501.75;5024725;28;20317;-65
2022/12/09 06:07:10;;;;;;;6.63;4.90;;;;;;;18.18;36.60;100505.06;5028781;28;20394;-68
2022/12/09 06:09:35;;;;;;;7.80;5.27;;;;;;;18.20;36.86;100498.72;5040759;28;20025;-66
2022/12/09 06:12:02;;;;;;;8.15;5.65;;;;;;;18.25;36.68;100501.78;5030337;28;20298;-67
2022/12/09 06:14:27;;;;;;;6.88;5.07;;;;;;;18.29;36.66;100499.69;5024355;28;20040;-67
2022/12/09 06:16:53;;;;;;;9.52;5.43;;;;;;;18.29;36.81;100491.78;5027340;28;20030;-68
2022/12/09 06:19:18;;;;;;;8.15;4.85;;;;;;;18.31;37.13;100497.78;5024311;28;20399;-66
2022/12/09 06:21:43;;;;;;;8.32;5.40;;;;;;;18.29;36.97;100483.88;5024508;28;20603;-67
2022/12/09 06:24:09;;;;;;;7.60;5.18;;;;;;;18.39;36.96;100500.56;5034530;28;20033;-68
2022/12/09 06:26:34;;;;;;;7.65;5.22;;;;;;;18.39;37.40;100503.22;5031876;28;20033;-67
2022/12/09 06:28:59;;;;;;;7.35;5.13;;;;;;;18.43;37.27;100495.84;5023855;28;20083;-68
2022/12/09 06:31:26;;;;;;;7.85;4.95;;;;;;;18.41;37.50;100498.63;5014409;28;20040;-68
2022/12/09 06:33:52;;;;;;;7.47;4.55;;;;;;;18.43;37.46;100496.69;5032425;28;20064;-66
2022/12/09 06:36:17;;;;;;;7.13;4.50;;;;;;;18.43;37.51;100494.03;5037410;28;20136;-67
2022/12/09 06:38:43;;;;;;;8.32;5.30;;;;;;;18.45;37.62;100499.19;5043597;28;20045;-65
2022/12/09 06:41:10;;;;;;;8.55;4.82;;;;;;;18.47;37.49;100500.72;5043874;28;20036;-66
2022/12/09 06:43:36;;;;;;;8.10;5.13;;;;;;;18.48;37.76;100499.78;5044011;28;20082;-66
2022/12/09 06:46:02;;;;;;;6.70;4.97;;;;;;;18.48;37.73;100491.00;5043498;28;20045;-66
2022/12/09 06:48:28;;;;;;;8.55;5.60;;;;;;;18.47;37.61;100492.81;5041670;28;20595;-66
2022/12/09 06:50:53;;;;;;;8.73;5.57;;;;;;;18.49;37.94;100493.50;5023682;28;20665;-67
2022/12/09 06:53:18;;;;;;;8.52;5.00;;;;;;;18.52;38.06;100499.47;5023913;28;20112;-66
2022/12/09 06:55:44;;;;;;;7.40;4.90;;;;;;;18.48;37.93;100491.84;5023871;28;20034;-66
2022/12/09 06:58:09;;;;;;;9.18;5.00;;;;;;;18.51;38.12;100492.53;5027264;28;20145;-68
2022/12/09 07:00:35;;;;;;;7.35;4.55;;;;;;;18.54;38.48;100492.28;5037677;28;20033;-67
2022/12/09 07:03:00;;;;;;;8.38;5.28;;;;;;;18.54;38.42;100492.28;5030920;28;20029;-66
2022/12/09 07:05:26;;;;;;;7.05;4.72;;;;;;;18.57;38.52;100500.75;5024832;28;20029;-66
2022/12/09 07:07:51;;;;;;;8.85;4.82;;;;;;;18.58;38.30;100498.94;5023449;28;20121;-69
2022/12/09 07:10:17;;;;;;;7.90;4.63;;;;;;;18.60;38.25;100500.47;5029597;28;20098;-68
2022/12/09 07:12:43;;;;;;;6.88;4.50;;;;;;;18.60;38.00;100504.94;5031985;28;20036;-66
2022/12/09 07:15:09;;;;;;;7.95;4.88;;;;;;;18.61;38.43;100501.28;5033280;28;20032;-66
2022/12/09 07:17:34;;;;;;;8.02;4.90;;;;;;;18.62;38.28;100505.63;5041314;28;20132;-64
2022/12/09 07:19:59;;;;;;;7.68;4.88;;;;;;;18.57;38.37;100497.28;5023570;28;20397;-67
2022/12/09 07:22:24;;;;;;;7.80;4.70;;;;;;;18.62;38.69;100508.25;5022935;28;20030;-66
2022/12/09 07:24:50;;;;;;;9.30;5.25;;;;;;;18.62;38.64;100511.72;5023589;28;20025;-67
2022/12/09 07:27:15;;;;;;;8.65;4.72;;;;;;;18.65;38.58;100522.00;5024881;28;20385;-66
2022/12/09 07:29:40;;;;;;;6.82;4.50;;;;;;;18.66;38.69;100522.88;5035139;28;20097;-65
2022/12/09 07:32:08;;;;;;;7.65;4.72;;;;;;;18.64;38.33;100523.00;5033644;28;20366;-66
2022/12/09 07:34:34;;;;;;;8.73;4.82;;;;;;;18.64;38.46;100523.00;5042962;28;20028;-67
2022/12/09 07:36:59;;;;;;;8.25;4.57;;;;;;;18.65;38.83;100522.00;5042529;28;20045;-65
2022/12/09 07:39:24;;;;;;;8.00;5.03;;;;;;;18.63;38.62;100518.69;5042876;28;20044;-66
2022/12/09 07:41:52;;;;;;;8.57;5.03;;;;;;;18.67;38.67;100530.66;5032684;28;20353;-67
2022/12/09 07:44:17;;;;;;;9.63;4.65;;;;;;;18.67;38.76;100522.72;5030413;28;20119;-68
2022/12/09 07:46:43;;;;;;;9.82;4.53;;;;;;;18.71;38.81;100532.97;5042568;28;20137;-66
2022/12/09 07:49:09;;;;;;;8.27;4.45;;;;;;;18.70;38.65;100531.34;5024063;28;20061;-67
2022/12/09 07:51:35;;;;;;;9.25;5.03;;;;;;;18.66;38.83;100534.25;5022443;28;20095;-67
2022/12/09 07:54:00;;;;;;;8.07;5.25;;;;;;;18.70;38.78;100534.81;5027993;28;20029;-68
2022/12/09 07:56:27;;;;;;;8.88;5.00;;;;;;;18.71;39.06;100539.13;5042388;28;20098;-67
2022/12/09 07:58:53;;;;;;;9.35;4.60;;;;;;;18.71;39.16;100541.75;5042623;28;20110;-66
2022/12/09 08:01:27;;;;;;;8.68;4.55;;;;;;;18.68;39.30;100534.13;5031760;28;20060;-68
2022/12/09 08:03:53;;;;;;;7.43;4.85;;;;;;;18.71;39.16;100539.13;5024011;28;20034;-68
2022/12/09 08:06:20;;;;;;;7.60;4.72;;;;;;;18.68;39.44;100534.94;5026099;28;20025;-68
2022/12/09 08:08:46;;;;;;;10.15;5.50;;;;;;;18.68;39.70;100534.94;5030570;28;20131;-69
2022/12/09 08:11:17;;;;;;;9.05;4.93;;;;;;;18.72;39.89;100540.78;5031275;28;20116;-68
2022/12/09 08:13:43;;;;;;;8.35;4.57;;;;;;;18.74;40.06;100538.84;5042550;28;20029;-67
2022/12/09 08:16:11;;;;;;;9.80;5.07;;;;;;;18.74;40.31;100536.22;5023764;28;20095;-67
2022/12/09 08:18:36;;;;;;;6.30;4.35;;;;;;;18.78;40.19;100542.03;5023402;28;20583;-66
2022/12/09 08:21:07;;;;;;;8.65;4.57;;;;;;;18.79;40.40;100535.81;5025306;28;20040;-67
2022/12/09 08:23:33;;;;;;;9.18;4.57;;;;;;;18.77;40.54;100530.66;5042241;28;20068;-66
2022/12/09 08:25:59;;;;;;;8.73;5.05;;;;;;;18.79;40.44;100541.91;5040128;28;20067;-67
2022/12/09 08:28:25;;;;;;;7.97;4.75;;;;;;;18.78;40.66;100540.22;5031749;28;20064;-68
2022/12/09 08:30:50;;;;;;;8.57;4.50;;;;;;;18.80;40.53;100538.31;5023714;28;20129;-67
2022/12/09 08:33:16;;;;;;;7.22;4.65;;;;;;;18.79;40.69;100533.16;5010893;28;20495;-68
2022/12/09 08:35:42;;;;;;;8.90;5.05;;;;;;;18.79;40.54;100534.00;5037218;28;20057;-68
2022/12/09 08:38:07;;;;;;;7.72;4.90;;;;;;;18.79;40.69;100531.34;5031850;28;20045;-68
2022/12/09 08:40:33;;;;;;;9.23;5.07;;;;;;;18.85;41.16;100536.13;5041420;28;20029;-67
2022/12/09 08:42:58;;;;;;;14.52;4.90;;;;;;;18.88;41.19;100529.72;5041309;28;20055;-67
2022/12/09 08:45:24;;;;;;;9.52;4.47;;;;;;;18.90;41.29;100530.44;5041424;28;20436;-66
2022/12/09 08:47:49;;;;;;;8.95;5.05;;;;;;;18.97;41.30;100538.63;5041727;28;20108;-70
2022/12/09 08:50:15;;;;;;;8.80;4.65;;;;;;;18.97;41.24;100530.72;5041275;28;20033;-68
2022/12/09 08:52:41;;;;;;;8.77;4.70;;;;;;;18.98;41.40;100532.38;5026276;28;20536;-68
2022/12/09 08:55:08;;;;;;;10.88;4.32;;;;;;;18.98;41.44;100535.03;5022567;28;20121;-68
2022/12/09 08:57:33;;;;;;;10.15;5.15;;;;;;;18.99;41.42;100526.97;5024381;28;20444;-67
2022/12/09 08:59:58;;;;;;;9.02;4.65;;;;;;;19.05;41.57;100527.38;5012562;28;20128;-65
2022/12/09 09:02:24;;;;;;;11.20;4.55;;;;;;;19.01;41.14;100519.75;5041231;28;20033;-66
2022/12/09 09:04:49;;;;;;;8.35;4.78;;;;;;;19.09;41.44;100528.75;5024917;28;20033;-69
2022/12/09 09:07:14;;;;;;;9.32;4.70;;;;;;;19.09;41.17;100531.41;5021584;28;20033;-65
2022/12/09 09:09:40;;;;;;;9.18;4.93;;;;;;;19.14;41.15;100537.94;5040471;28;20061;-67
2022/12/09 09:12:05;;;;;;;10.85;4.80;;;;;;;19.14;41.07;100542.41;5041055;28;20033;-67
2022/12/09 09:14:31;;;;;;;9.98;5.00;;;;;;;19.16;41.06;100546.56;5040906;28;20095;-66
2022/12/09 09:16:56;;;;;;;9.68;5.03;;;;;;;19.18;40.87;100546.41;5036773;28;20086;-68
2022/12/09 09:19:24;;;;;;;10.27;5.22;;;;;;;19.16;40.62;100548.38;5036986;28;20053;-68
2022/12/09 09:21:50;;;;;;;11.75;5.38;;;;;;;19.13;40.09;100551.28;5040949;28;20562;-69
2022/12/09 09:24:18;;;;;;;7.82;4.80;;;;;;;19.10;40.44;100556.84;5023263;28;20436;-72
2022/12/09 09:26:43;;;;;;;14.68;4.80;;;;;;;19.08;40.58;100557.00;5020924;28;20033;-72
2022/12/09 09:29:13;;;;;;;9.45;5.55;;;;;;;19.07;40.23;100554.47;5023415;28;20041;-69
2022/12/09 09:31:38;;;;;;;13.75;5.35;;;;;;;19.12;40.43;100565.47;5031512;28;20039;-68
2022/12/09 09:34:04;;;;;;;14.55;5.35;;;;;;;19.15;40.39;100558.13;5038365;28;20037;-65
2022/12/09 09:36:30;;;;;;;10.13;5.30;;;;;;;19.17;40.28;100552.69;5021459;28;20077;-66
2022/12/09 09:38:56;;;;;;;9.55;5.18;;;;;;;19.15;39.92;100555.47;5021040;28;20041;-69
2022/12/09 09:41:49;;;;;;;10.15;5.45;;;;;;;19.15;39.82;100551.97;5026974;28;20055;-66
2022/12/09 09:44:20;;;;;;;12.77;4.95;;;;;;;19.12;39.93;100544.34;5021294;28;20065;-67
2022/12/09 09:46:48;;;;;;;13.55;4.85;;;;;;;19.16;39.91;100545.75;5017490;28;20033;-65
2022/12/09 09:49:22;;;;;;;8.35;4.75;;;;;;;19.16;39.98;100545.75;5029452;28;20030;-65
2022/12/09 09:51:47;;;;;;;9.25;5.00;;;;;;;19.20;40.15;100555.88;5018480;28;20609;-65
2022/12/09 09:54:14;;;;;;;12.60;4.88;;;;;;;19.19;40.14;100545.47;5015523;28;20077;-65
2022/12/09 09:57:14;;;;;;;12.32;4.60;;;;;;;19.20;39.88;100542.69;5014014;28;20116;-66
2022/12/09 09:59:54;;;;;;;7.95;4.60;;;;;;;19.20;40.19;100550.59;4982673;28;20041;-67
2022/12/09 10:02:44;;;;;;;7.88;4.10;;;;;;;19.20;39.88;100539.19;5019579;28;20041;-67
2022/12/09 10:05:12;;;;;;;8.93;4.68;;;;;;;19.21;39.96;100541.69;5019358;28;20496;-66
2022/12/09 10:07:41;;;;;;;7.70;4.43;;;;;;;19.17;39.80;100539.50;5026839;28;20069;-68
2022/12/09 10:10:14;;;;;;;8.02;4.18;;;;;;;19.19;39.95;100541.00;5018283;28;20568;-67
2022/12/09 10:12:48;;;;;;;7.82;4.07;;;;;;;19.22;39.75;100547.81;5020574;28;20033;-64
2022/12/09 10:15:32;;;;;;;8.75;4.28;;;;;;;19.24;39.46;100545.03;5026878;28;20116;-67
2022/12/09 10:18:15;;;;;;;8.80;4.33;;;;;;;19.28;38.54;100549.06;5022198;28;20075;-65
2022/12/09 10:20:41;;;;;;;9.00;4.90;;;;;;;19.27;39.10;100542.94;5018905;28;20105;-65
2022/12/09 10:23:16;;;;;;;8.00;4.40;;;;;;;19.24;39.07;100535.31;5029940;28;20048;-67
2022/12/09 10:26:01;;;;;;;10.82;4.70;;;;;;;19.24;39.01;100543.22;5017933;28;20033;-67
2022/12/09 10:28:35;;;;;;;7.30;3.92;;;;;;;19.22;39.23;100539.91;5018611;28;20037;-69
2022/12/09 10:31:01;;;;;;;12.23;3.90;;;;;;;19.25;39.07;100544.06;5032107;28;20427;-67
2022/12/09 10:33:32;;;;;;;9.07;4.10;;;;;;;19.25;39.16;100542.25;5024625;28;20041;-69
2022/12/09 10:35:57;;;;;;;11.70;4.22;;;;;;;19.25;39.46;100538.78;5022129;28;20053;-69
2022/12/09 10:38:25;;;;;;;7.93;4.15;;;;;;;19.22;39.30;100537.25;5017552;28;20034;-70
2022/12/09 10:41:05;;;;;;;8.57;4.18;;;;;;;19.24;39.34;100545.03;5031142;28;20037;-70
2022/12/09 10:43:37;;;;;;;9.50;4.35;;;;;;;19.23;39.23;100541.56;5021766;28;20042;-69
2022/12/09 10:46:11;;;;;;;7.72;3.83;;;;;;;19.21;39.28;100533.75;5034505;28;20899;-68
2022/12/09 10:48:42;;;;;;;7.72;4.07;;;;;;;19.24;39.21;100540.59;5020386;28;20038;-68
2022/12/09 10:51:25;;;;;;;8.15;4.50;;;;;;;19.24;39.03;100542.41;5031387;28;20029;-63
2022/12/09 10:54:09;;;;;;;7.80;4.30;;;;;;;19.20;38.20;100534.75;5020340;28;20033;-68
2022/12/09 10:56:38;;;;;;;7.97;3.95;;;;;;;19.22;38.62;100534.63;5023099;28;20060;-67
2022/12/09 10:59:25;;;;;;;7.85;4.32;;;;;;;19.25;37.86;100536.97;5023937;28;20493;-68
2022/12/09 11:02:09;;;;;;;7.65;4.57;;;;;;;19.27;38.29;100537.66;5031079;28;20029;-68
2022/12/09 11:04:37;;;;;;;7.22;4.28;;;;;;;19.26;38.31;100528.06;5024358;28;20037;-68
2022/12/09 11:07:11;;;;;;;7.50;3.90;;;;;;;19.26;38.43;100533.34;5019442;28;20041;-69
2022/12/09 11:09:38;;;;;;;6.57;3.97;;;;;;;19.25;38.42;100533.47;5019094;28;20037;-65
2022/12/09 11:12:11;;;;;;;7.18;3.70;;;;;;;19.22;38.49;100534.63;5024494;28;20084;-68
2022/12/09 11:14:39;;;;;;;6.80;3.90;;;;;;;19.21;38.38;100527.66;5025723;28;20040;-68
2022/12/09 11:17:33;;;;;;;7.20;3.67;;;;;;;19.26;38.52;100530.72;5033546;28;20068;-68
2022/12/09 11:20:04;;;;;;;8.85;3.80;;;;;;;19.28;38.59;100538.50;5032418;28;20452;-67
2022/12/09 11:22:37;;;;;;;10.23;3.83;;;;;;;19.28;38.64;100536.72;5024197;28;20378;-69
2022/12/09 11:25:14;;;;;;;7.80;3.40;;;;;;;19.28;38.57;100534.06;5013543;28;20080;-70
2022/12/09 11:27:50;;;;;;;7.25;3.97;;;;;;;19.26;38.58;100530.72;5023356;28;20029;-68
2022/12/09 11:30:39;;;;;;;8.70;3.67;;;;;;;19.28;38.67;100533.22;5039619;28;20401;-68